createdAt,value
2022-08-19T00:00:26.590Z,20.0
2022-08-19T00:05:32.793Z,19.9
2022-08-19T00:10:39.002Z,19.9
2022-08-19T00:15:45.207Z,19.8
2022-08-19T00:20:51.422Z,19.7
2022-08-19T00:25:57.623Z,19.7
2022-08-19T00:31:03.832Z,19.6
2022-08-19T00:36:10.047Z,19.5
2022-08-19T00:41:16.248Z,19.5
2022-08-19T00:46:22.457Z,19.4
2022-08-19T00:51:28.669Z,19.4
2022-08-19T00:56:34.878Z,19.3
2022-08-19T01:01:41.130Z,19.3
2022-08-19T01:06:47.291Z,19.2
2022-08-19T01:11:53.500Z,19.1
2022-08-19T01:16:59.707Z,19.1
2022-08-19T01:22:15.452Z,19.0
2022-08-19T01:27:12.143Z,19.0
2022-08-19T01:32:33.103Z,18.9
2022-08-19T01:37:24.858Z,18.9
2022-08-19T01:42:30.814Z,18.9
2022-08-19T01:47:36.963Z,18.9
2022-08-19T01:52:43.165Z,18.8
2022-08-19T01:57:49.377Z,18.8
2022-08-19T02:02:55.587Z,18.8
2022-08-19T02:08:01.819Z,18.8
2022-08-19T02:13:08.007Z,18.8
2022-08-19T02:18:14.212Z,18.8
2022-08-19T02:23:20.422Z,18.8
2022-08-19T02:28:26.625Z,18.8
2022-08-19T02:33:32.833Z,18.8
2022-08-19T02:38:39.043Z,18.8
2022-08-19T02:44:18.354Z,18.8
2022-08-19T02:48:51.454Z,18.8
2022-08-19T02:53:57.668Z,18.8
2022-08-19T02:59:03.877Z,18.7
2022-08-19T03:04:10.085Z,18.7
2022-08-19T03:09:16.293Z,18.7
2022-08-19T03:14:22.497Z,18.6
2022-08-19T03:19:28.709Z,18.6
2022-08-19T03:24:34.918Z,18.6
2022-08-19T03:29:43.885Z,18.5
2022-08-19T03:34:47.332Z,18.5
2022-08-19T03:39:53.590Z,18.5
2022-08-19T03:44:59.753Z,18.5
2022-08-19T03:50:05.959Z,18.5
2022-08-19T03:55:12.163Z,18.5
2022-08-19T04:00:18.376Z,18.5
2022-08-19T04:05:24.702Z,18.5
2022-08-19T04:10:30.792Z,18.5
2022-08-19T04:15:36.997Z,18.4
2022-08-19T04:20:43.205Z,18.4
2022-08-19T04:25:49.409Z,18.4
2022-08-19T04:30:54.645Z,18.4
2022-08-19T04:36:00.843Z,18.4
2022-08-19T04:41:07.060Z,18.4
2022-08-19T04:46:23.477Z,18.4
2022-08-19T04:51:19.468Z,18.4
2022-08-19T04:56:25.674Z,18.4
2022-08-19T05:01:31.904Z,18.4
2022-08-19T05:06:38.092Z,18.4
2022-08-19T05:11:44.299Z,18.5
2022-08-19T05:16:58.878Z,18.5
2022-08-19T05:21:56.721Z,18.5
2022-08-19T05:27:02.929Z,18.6
2022-08-19T05:32:09.136Z,18.6
2022-08-19T05:37:15.346Z,18.6
2022-08-19T05:42:21.554Z,18.7
2022-08-19T05:47:27.759Z,18.7
2022-08-19T05:52:33.976Z,18.8
2022-08-19T05:57:40.183Z,18.8
2022-08-19T06:02:46.483Z,19.0
2022-08-19T06:07:52.787Z,19.1
2022-08-19T06:12:58.800Z,19.2
2022-08-19T06:18:05.047Z,19.3
2022-08-19T06:23:11.231Z,19.4
2022-08-19T06:28:17.710Z,19.5
2022-08-19T06:33:23.635Z,19.7
2022-08-19T06:38:29.848Z,19.8
2022-08-19T06:43:36.057Z,19.9
2022-08-19T06:48:45.268Z,20.1
2022-08-19T06:58:54.682Z,20.5
2022-08-19T07:04:00.887Z,20.7
2022-08-19T07:09:07.107Z,20.9
2022-08-19T07:14:19.121Z,21.2
2022-08-19T07:19:19.517Z,21.5
2022-08-19T07:24:25.726Z,21.7
2022-08-19T07:29:31.931Z,21.9
2022-08-19T07:34:38.154Z,22.2
2022-08-19T07:39:44.384Z,22.4
2022-08-19T07:44:51.093Z,22.6
2022-08-19T07:49:56.771Z,22.8
2022-08-19T07:55:02.978Z,23.0
2022-08-19T08:00:09.187Z,23.2
2022-08-19T08:05:15.399Z,23.4
2022-08-19T08:10:21.704Z,23.6
2022-08-19T08:15:27.810Z,23.8
2022-08-19T08:20:34.029Z,24.0
2022-08-19T08:25:40.238Z,24.2
2022-08-19T08:30:46.441Z,24.4
2022-08-19T08:35:52.646Z,24.6
2022-08-19T08:40:58.861Z,24.8
2022-08-19T08:46:05.068Z,24.9
2022-08-19T08:51:11.277Z,25.0
2022-08-19T08:56:18.788Z,25.1
2022-08-19T09:01:23.745Z,25.3
2022-08-19T09:06:29.906Z,25.5
2022-08-19T09:11:42.032Z,25.6
2022-08-19T09:16:42.321Z,25.9
2022-08-19T09:21:48.534Z,26.0
2022-08-19T09:26:54.745Z,26.1
2022-08-19T09:32:00.958Z,26.2
2022-08-19T09:37:07.158Z,26.3
2022-08-19T09:42:16.327Z,26.4
2022-08-19T09:47:19.976Z,26.4
2022-08-19T09:52:25.792Z,26.5
2022-08-19T09:57:32.028Z,26.6
2022-08-19T10:02:37.221Z,26.7
2022-08-19T10:07:43.431Z,26.8
2022-08-19T10:12:49.643Z,26.8
2022-08-19T10:17:55.877Z,26.7
2022-08-19T10:23:02.066Z,26.6
2022-08-19T10:28:10.630Z,26.6
2022-08-19T10:33:14.481Z,26.7
2022-08-19T10:38:20.697Z,26.8
2022-08-19T10:43:26.913Z,26.9
2022-08-19T10:48:33.123Z,26.9
2022-08-19T10:53:39.331Z,26.9
2022-08-19T10:58:45.542Z,26.9
2022-08-19T11:03:51.756Z,26.9
2022-08-19T11:08:57.957Z,26.9
2022-08-19T11:14:04.175Z,27.1
2022-08-19T11:19:10.386Z,27.1
2022-08-19T11:24:16.605Z,27.1
2022-08-19T11:29:22.811Z,27.2
2022-08-19T11:34:29.026Z,27.3
2022-08-19T11:39:35.289Z,27.4
2022-08-19T11:44:41.450Z,27.5
2022-08-19T11:49:47.661Z,27.6
2022-08-19T12:00:00.122Z,27.8
2022-08-19T12:05:09.087Z,27.8
2022-08-19T12:10:12.523Z,27.8
2022-08-19T12:15:18.782Z,27.9
2022-08-19T12:20:24.958Z,28.0
2022-08-19T12:25:31.175Z,28.1
2022-08-19T12:30:37.393Z,28.2
2022-08-19T12:35:45.660Z,28.2
2022-08-19T12:40:49.824Z,28.3
2022-08-19T12:45:56.044Z,28.4
2022-08-19T12:51:02.257Z,28.4
2022-08-19T12:56:12.252Z,28.5
2022-08-19T13:01:14.717Z,28.6
2022-08-19T13:06:20.908Z,28.6
2022-08-19T13:11:27.353Z,0.0
2022-08-19T13:16:33.801Z,0.0
2022-08-19T13:21:40.015Z,28.8
2022-08-19T13:26:46.228Z,29.0
2022-08-19T13:31:52.448Z,29.1
2022-08-19T13:36:58.672Z,29.2
2022-08-19T13:42:04.888Z,29.2
2022-08-19T13:47:11.106Z,29.2
2022-08-19T13:52:17.336Z,29.3
2022-08-19T13:57:23.559Z,29.4
2022-08-19T14:02:29.773Z,29.4
2022-08-19T14:07:35.999Z,29.3
2022-08-19T14:12:42.215Z,29.1
2022-08-19T14:17:48.470Z,29.0
2022-08-19T14:22:54.652Z,28.9
2022-08-19T14:28:00.866Z,28.8
2022-08-19T14:33:07.085Z,28.6
2022-08-19T14:38:13.296Z,28.5
2022-08-19T14:43:19.516Z,28.3
2022-08-19T14:48:28.962Z,0.0
2022-08-19T14:53:32.180Z,28.2
2022-08-19T14:58:39.202Z,28.1
2022-08-19T15:03:44.614Z,28.1
2022-08-19T15:08:50.837Z,28.2
2022-08-19T15:13:57.052Z,28.3
2022-08-19T15:19:03.270Z,28.1
2022-08-19T15:24:09.498Z,27.9
2022-08-19T15:29:15.711Z,27.7
2022-08-19T15:34:20.929Z,27.5
2022-08-19T15:39:27.150Z,27.4
2022-08-19T15:44:33.384Z,27.4
2022-08-19T15:49:39.583Z,27.2
2022-08-19T15:54:45.792Z,27.1
2022-08-19T15:59:52.008Z,26.9
2022-08-19T16:04:57.251Z,26.7
2022-08-19T16:10:18.632Z,26.5
2022-08-19T16:15:09.670Z,26.4
2022-08-19T16:20:15.869Z,26.3
2022-08-19T16:25:22.076Z,26.2
2022-08-19T16:30:28.291Z,26.1
2022-08-19T16:35:34.509Z,26.0
2022-08-19T16:40:44.957Z,25.9
2022-08-19T16:45:46.922Z,25.8
2022-08-19T16:50:53.130Z,25.7
2022-08-19T16:55:59.335Z,25.6
2022-08-19T17:01:05.562Z,25.4
2022-08-19T17:06:15.854Z,25.3
2022-08-19T17:11:18.872Z,25.1
2022-08-19T17:16:24.178Z,25.0
2022-08-19T17:21:30.382Z,25.0
2022-08-19T17:26:36.589Z,24.9
2022-08-19T17:31:42.803Z,24.9
2022-08-19T17:36:49.008Z,24.8
2022-08-19T17:41:55.220Z,24.7
2022-08-19T17:47:01.431Z,24.6
2022-08-19T17:52:10.072Z,24.6
2022-08-19T17:57:13.848Z,24.6
2022-08-19T18:02:22.041Z,24.6
2022-08-19T18:07:26.265Z,24.6
2022-08-19T18:12:32.481Z,24.6
2022-08-19T18:17:38.683Z,24.6
2022-08-19T18:22:44.895Z,24.5
2022-08-19T18:27:51.161Z,24.5
2022-08-19T18:32:57.313Z,24.4
2022-08-19T18:38:03.529Z,24.3
2022-08-19T18:43:09.727Z,24.3
2022-08-19T18:48:26.815Z,24.2
2022-08-19T18:53:22.162Z,24.1
2022-08-19T18:58:28.359Z,24.0
2022-08-19T19:03:34.564Z,23.9
2022-08-19T19:08:40.776Z,23.9
2022-08-19T19:13:46.985Z,23.8
2022-08-19T19:18:53.208Z,23.7
2022-08-19T19:23:59.413Z,23.6
2022-08-19T19:29:05.614Z,23.6
2022-08-19T19:34:29.174Z,23.5
2022-08-19T19:39:30.547Z,23.4
2022-08-19T19:44:30.246Z,23.3
2022-08-19T19:49:30.452Z,23.2
2022-08-19T19:54:36.656Z,23.2
2022-08-19T19:59:44.836Z,23.1
2022-08-19T20:04:49.080Z,23.1
2022-08-19T20:09:59.689Z,23.1
2022-08-19T20:15:01.498Z,23.0
2022-08-19T20:20:07.702Z,23.0
2022-08-19T20:25:13.937Z,22.9
2022-08-19T20:30:20.135Z,22.9
2022-08-19T20:35:26.347Z,22.9
2022-08-19T20:40:32.538Z,22.9
2022-08-19T20:45:38.755Z,22.8
2022-08-19T20:50:44.958Z,22.8
2022-08-19T20:55:51.180Z,22.7
2022-08-19T21:00:57.422Z,22.7
2022-08-19T21:06:03.597Z,22.6
2022-08-19T21:11:09.791Z,22.6
2022-08-19T21:16:16.002Z,22.6
2022-08-19T21:21:22.212Z,22.5
2022-08-19T21:26:28.421Z,22.5
2022-08-19T21:31:34.633Z,22.5
2022-08-19T21:36:39.851Z,22.4
2022-08-19T21:41:46.062Z,22.5
2022-08-19T21:46:52.268Z,22.4
2022-08-19T21:51:58.476Z,22.4
2022-08-19T21:57:04.691Z,22.4
2022-08-19T22:02:19.915Z,22.4
2022-08-19T22:07:17.106Z,22.4
2022-08-19T22:12:23.463Z,22.4
2022-08-19T22:17:29.531Z,22.4
2022-08-19T22:22:35.728Z,22.4
2022-08-19T22:27:41.940Z,22.4
2022-08-19T22:32:48.149Z,22.4
2022-08-19T22:37:54.439Z,22.4
2022-08-19T22:43:00.566Z,22.3
2022-08-19T22:48:06.778Z,22.3
2022-08-19T22:53:12.985Z,22.3
2022-08-19T22:58:28.000Z,22.3
2022-08-19T23:03:25.406Z,22.3
2022-08-19T23:08:31.619Z,22.3
2022-08-19T23:13:37.824Z,22.3
2022-08-19T23:18:44.037Z,22.3
2022-08-19T23:23:50.258Z,22.2
2022-08-19T23:28:56.463Z,22.2
2022-08-19T23:34:02.664Z,22.2
2022-08-19T23:39:08.869Z,22.2
2022-08-19T23:44:15.133Z,22.2
2022-08-19T23:49:21.281Z,22.2
2022-08-19T23:54:42.668Z,22.2
2022-08-19T23:59:33.702Z,22.2
